Orbital elements of FENGYUN 1C DEB
| Launched | 9 May 1999 |
| Flight ended | – |
| Launch site | Taiyuan Space Center, PRC |
| Owner | People's Republic of China |
| NORAD ID | 30369 |
| Date fetched |
Epoch osculation |
Inc. [°] |
Ecc. | RA asc node [hr] |
Arg Peri. [°] |
Mean anom [°] |
Mean motion [rev/day] |
Abs. mag |
| Date fetched |
Epoch osculation |
Inc. [°] |
Ecc. | RA asc node [hr] |
Arg Peri. [°] |
Mean anom [°] |
Mean motion [rev/day] |
Abs. mag |
| 2026 May 05 17:57 | 2026 May 05 12:14:20 | 98.7281 | 0.01000 | 8.2703 | 146.6982 | 9.9277 | 14.12186 | – |
| 2026 May 04 17:57 | 2026 Apr 30 11:29:05 | 98.7279 | 0.00997 | 7.9436 | 160.9412 | 9.9277 | 14.12186 | – |
| 2026 May 03 17:57 | 2026 Apr 30 11:29:05 | 98.7279 | 0.00997 | 7.9436 | 160.9412 | 9.9277 | 14.12186 | – |
| 2026 May 02 17:57 | 2026 Apr 30 11:29:05 | 98.7279 | 0.00997 | 7.9436 | 160.9412 | 9.9277 | 14.12186 | – |
| 2026 May 01 17:56 | 2026 Apr 30 11:29:05 | 98.7279 | 0.00997 | 7.9436 | 160.9412 | 9.9277 | 14.12186 | – |
| 2026 Apr 30 17:56 | 2026 Apr 30 11:29:05 | 98.7279 | 0.00997 | 7.9436 | 160.9412 | 9.9277 | 14.12186 | – |
| 2026 Apr 29 17:57 | 2026 Apr 24 10:59:52 | 98.7281 | 0.00994 | 7.5526 | 178.0107 | 9.9277 | 14.12186 | – |
| 2026 Apr 28 17:56 | 2026 Apr 24 10:59:52 | 98.7281 | 0.00994 | 7.5526 | 178.0107 | 9.9277 | 14.12186 | – |
| 2026 Apr 27 17:58 | 2026 Apr 24 10:59:52 | 98.7281 | 0.00994 | 7.5526 | 178.0107 | 9.9277 | 14.12186 | – |
| 2026 Apr 26 17:58 | 2026 Apr 24 10:59:52 | 98.7281 | 0.00994 | 7.5526 | 178.0107 | 9.9277 | 14.12186 | – |
| 2026 Apr 25 17:58 | 2026 Apr 24 10:59:52 | 98.7281 | 0.00994 | 7.5526 | 178.0107 | 9.9277 | 14.12186 | – |
| 2026 Apr 24 17:59 | 2026 Apr 24 10:59:52 | 98.7281 | 0.00994 | 7.5526 | 178.0107 | 9.9277 | 14.12186 | – |
| 2026 Apr 23 17:57 | 2026 Apr 19 06:11:23 | 98.7283 | 0.00991 | 7.2149 | 192.8366 | 9.9277 | 14.12186 | – |
| 2026 Apr 22 17:57 | 2026 Apr 19 06:11:23 | 98.7283 | 0.00991 | 7.2149 | 192.8366 | 9.9277 | 14.12186 | – |
| 2026 Apr 21 17:57 | 2026 Apr 19 06:11:23 | 98.7283 | 0.00991 | 7.2149 | 192.8366 | 9.9277 | 14.12186 | – |
| 2026 Apr 20 17:57 | 2026 Apr 19 06:11:23 | 98.7283 | 0.00991 | 7.2149 | 192.8366 | 9.9277 | 14.12186 | – |
| 2026 Apr 19 17:58 | 2026 Apr 19 06:11:23 | 98.7283 | 0.00991 | 7.2149 | 192.8366 | 9.9277 | 14.12186 | – |
| 2026 Apr 18 17:56 | 2026 Apr 12 22:53:42 | 98.7281 | 0.00987 | 6.8056 | 210.8541 | 9.9277 | 14.12186 | – |
| 2026 Apr 16 17:57 | 2026 Apr 12 22:53:42 | 98.7281 | 0.00987 | 6.8056 | 210.8541 | 9.9277 | 14.12186 | – |
| 2026 Apr 14 17:57 | 2026 Apr 12 22:53:42 | 98.7281 | 0.00987 | 6.8056 | 210.8541 | 9.9277 | 14.12186 | – |
| 2026 Apr 13 17:57 | 2026 Apr 12 22:53:42 | 98.7281 | 0.00987 | 6.8056 | 210.8541 | 9.9277 | 14.12186 | – |
| 2026 Apr 12 17:57 | 2026 Apr 07 22:17:47 | 98.7286 | 0.00985 | 6.4793 | 225.2348 | 9.9277 | 14.12186 | – |
| 2026 Apr 11 17:57 | 2026 Apr 07 22:17:47 | 98.7286 | 0.00985 | 6.4793 | 225.2348 | 9.9277 | 14.12186 | – |
| 2026 Apr 10 17:58 | 2026 Apr 07 22:17:47 | 98.7286 | 0.00985 | 6.4793 | 225.2348 | 9.9277 | 14.12186 | – |
| 2026 Apr 09 18:01 | 2026 Apr 07 22:17:47 | 98.7286 | 0.00985 | 6.4793 | 225.2348 | 9.9277 | 14.12186 | – |
| 2026 Apr 08 17:57 | 2026 Apr 07 22:17:47 | 98.7286 | 0.00985 | 6.4793 | 225.2348 | 9.9277 | 14.12186 | – |